createdAt,value
2017-10-18T00:00:43.121Z,13.77
2017-10-18T00:06:06.111Z,13.79
2017-10-18T00:08:43.529Z,13.80
2017-10-18T00:11:22.393Z,13.84
2017-10-18T00:17:14.637Z,13.78
2017-10-18T00:19:42.456Z,13.75
2017-10-18T00:22:11.332Z,13.68
2017-10-18T00:24:42.508Z,13.62
2017-10-18T00:27:12.506Z,13.76
2017-10-18T00:30:14.379Z,13.80
2017-10-18T00:34:22.767Z,13.82
2017-10-18T00:40:07.431Z,13.53
2017-10-18T00:42:35.029Z,13.61
2017-10-18T00:47:37.334Z,13.55
2017-10-18T00:50:05.992Z,13.54
2017-10-18T00:52:39.040Z,13.44
2017-10-18T00:55:06.653Z,13.40
2017-10-18T00:57:34.538Z,13.45
2017-10-18T01:00:06.850Z,13.38
2017-10-18T01:02:36.547Z,13.34
2017-10-18T01:05:05.287Z,13.34
2017-10-18T01:07:41.867Z,13.10
2017-10-18T01:10:09.623Z,12.98
2017-10-18T01:12:48.074Z,13.02
2017-10-18T01:21:06.335Z,12.93
2017-10-18T01:23:37.601Z,12.86
2017-10-18T01:26:05.720Z,12.64
2017-10-18T01:28:33.596Z,12.80
2017-10-18T01:31:01.838Z,12.80
2017-10-18T01:33:30.096Z,12.82
2017-10-18T01:35:57.836Z,12.82
2017-10-18T01:38:29.126Z,12.87
2017-10-18T01:41:04.267Z,12.66
2017-10-18T01:46:13.358Z,12.57
2017-10-18T01:53:53.588Z,12.53
2017-10-18T01:56:29.344Z,12.54
2017-10-18T01:58:59.718Z,12.61
2017-10-18T02:01:28.359Z,12.58
2017-10-18T02:03:59.856Z,12.58
2017-10-18T02:06:27.778Z,12.41
2017-10-18T02:08:56.262Z,12.38
2017-10-18T02:11:39.907Z,12.28
2017-10-18T02:14:09.004Z,12.33
2017-10-18T02:16:36.762Z,12.45
2017-10-18T03:32:02.919Z,10.97
2017-10-18T03:34:32.353Z,10.95
2017-10-18T03:39:40.526Z,10.97
2017-10-18T03:42:09.883Z,11.10
2017-10-18T03:44:49.901Z,11.13
2017-10-18T03:49:56.754Z,11.05
2017-10-18T03:52:26.712Z,11.09
2017-10-18T03:54:54.410Z,10.94
2017-10-18T03:57:22.587Z,11.03
2017-10-18T03:59:51.204Z,10.98
2017-10-18T04:05:19.498Z,10.89
2017-10-18T04:07:49.893Z,10.73
2017-10-18T04:10:17.690Z,10.61
2017-10-18T04:12:45.865Z,10.67
2017-10-18T04:15:13.746Z,10.72
2017-10-18T04:17:41.548Z,10.84
2017-10-18T04:23:00.938Z,10.69
2017-10-18T04:25:29.394Z,10.58
2017-10-18T04:30:42.805Z,10.74
2017-10-18T04:33:11.368Z,10.79
2017-10-18T04:35:39.541Z,10.64
2017-10-18T04:38:07.559Z,10.81
2017-10-18T04:40:36.395Z,10.85
2017-10-18T04:43:26.695Z,10.67
2017-10-18T04:45:54.577Z,10.64
2017-10-18T04:48:22.335Z,10.57
2017-10-18T04:55:56.498Z,10.35
2017-10-18T04:58:28.535Z,10.46
2017-10-18T05:00:56.551Z,10.37
2017-10-18T05:03:25.051Z,10.42
2017-10-18T05:05:53.908Z,10.48
2017-10-18T05:08:21.704Z,10.58
2017-10-18T05:10:49.502Z,10.56
2017-10-18T05:13:17.217Z,10.38
2017-10-18T05:15:45.393Z,10.42
2017-10-18T05:18:13.099Z,10.25
2017-10-18T05:20:40.749Z,10.46
2017-10-18T05:23:08.428Z,10.48
2017-10-18T05:25:36.747Z,10.45
2017-10-18T05:28:04.501Z,10.44
2017-10-18T05:30:33.396Z,10.35
2017-10-18T05:33:01.336Z,10.38
2017-10-18T05:35:29.563Z,10.33
2017-10-18T05:37:57.429Z,10.48
2017-10-18T05:40:25.230Z,10.47
2017-10-18T05:42:52.857Z,10.39
2017-10-18T05:45:21.061Z,10.41
2017-10-18T05:47:48.638Z,10.46
2017-10-18T05:50:17.000Z,10.36
2017-10-18T05:52:44.553Z,10.40
2017-10-18T05:55:12.246Z,10.41
2017-10-18T05:57:39.830Z,10.43
2017-10-18T06:00:07.473Z,10.46
2017-10-18T06:02:35.500Z,10.52
2017-10-18T06:05:06.158Z,10.49
2017-10-18T06:10:17.497Z,10.38
2017-10-18T06:12:45.086Z,10.45
2017-10-18T06:15:12.708Z,10.18
2017-10-18T06:17:47.592Z,10.28
2017-10-18T06:20:15.160Z,10.36
2017-10-18T06:22:42.740Z,10.39
2017-10-18T06:25:10.354Z,10.12
2017-10-18T06:27:41.305Z,9.92
2017-10-18T06:30:08.870Z,10.03
2017-10-18T06:32:38.622Z,10.25
2017-10-18T06:35:06.441Z,10.50
2017-10-18T06:37:33.913Z,10.65
2017-10-18T06:40:01.460Z,11.23
2017-10-18T06:42:28.926Z,14.45
2017-10-18T06:44:56.444Z,16.99
2017-10-18T06:47:24.934Z,18.91
2017-10-18T06:49:52.465Z,20.28
2017-10-18T06:52:19.998Z,20.40
2017-10-18T06:54:48.076Z,21.48
2017-10-18T06:57:15.993Z,22.65
2017-10-18T06:59:43.473Z,23.49
2017-10-18T07:02:11.061Z,24.29
2017-10-18T07:04:39.334Z,24.86
2017-10-18T07:07:06.880Z,25.61
2017-10-18T07:09:34.922Z,25.97
2017-10-18T07:12:03.213Z,25.89
2017-10-18T07:14:31.230Z,26.45
2017-10-18T07:16:59.076Z,26.61
2017-10-18T07:19:26.628Z,27.48
2017-10-18T07:21:54.213Z,27.92
2017-10-18T07:24:21.824Z,26.07
2017-10-18T07:26:49.372Z,25.89
2017-10-18T07:29:16.979Z,26.07
2017-10-18T07:31:44.473Z,27.76
2017-10-18T07:34:12.019Z,29.53
2017-10-18T07:36:39.544Z,29.40
2017-10-18T07:39:07.101Z,30.23
2017-10-18T07:41:34.699Z,30.64
2017-10-18T07:44:02.255Z,30.65
2017-10-18T07:46:29.798Z,29.82
2017-10-18T07:48:57.496Z,28.57
2017-10-18T07:51:25.116Z,29.04
2017-10-18T07:53:53.006Z,30.70
2017-10-18T07:56:20.564Z,30.50
2017-10-18T07:58:48.102Z,30.62
2017-10-18T08:01:15.828Z,29.65
2017-10-18T08:03:44.542Z,27.78
2017-10-18T08:06:12.071Z,28.36
2017-10-18T08:08:39.640Z,29.46
2017-10-18T08:11:07.173Z,29.37
2017-10-18T08:13:35.082Z,27.66
2017-10-18T08:16:02.639Z,26.76
2017-10-18T08:18:30.222Z,27.19
2017-10-18T08:20:58.302Z,27.77
2017-10-18T08:23:25.875Z,28.20
2017-10-18T08:25:53.482Z,28.99
2017-10-18T08:28:21.032Z,29.96
2017-10-18T08:30:48.607Z,28.90
2017-10-18T08:33:16.147Z,27.46
2017-10-18T08:35:43.697Z,27.27
2017-10-18T08:38:11.336Z,27.75
2017-10-18T08:40:39.134Z,28.33
2017-10-18T08:43:06.859Z,29.32
2017-10-18T08:45:34.403Z,30.58
2017-10-18T08:48:02.722Z,29.92
2017-10-18T08:50:30.324Z,29.03
2017-10-18T08:52:58.658Z,28.96
2017-10-18T08:55:26.296Z,28.05
2017-10-18T08:57:53.971Z,26.61
2017-10-18T09:00:21.493Z,25.21
2017-10-18T09:02:49.219Z,25.73
2017-10-18T09:05:16.872Z,25.96
2017-10-18T09:07:44.437Z,25.97
2017-10-18T09:10:12.052Z,26.24
2017-10-18T09:12:39.662Z,26.62
2017-10-18T09:15:08.193Z,28.48
2017-10-18T09:17:35.705Z,29.99
2017-10-18T09:20:03.364Z,30.36
2017-10-18T09:22:30.905Z,31.14
2017-10-18T09:24:58.446Z,31.59
2017-10-18T09:27:26.042Z,32.07
2017-10-18T09:29:53.595Z,31.50
2017-10-18T09:32:21.364Z,32.06
2017-10-18T09:34:48.896Z,33.32
2017-10-18T09:37:16.521Z,33.44
2017-10-18T09:39:44.139Z,33.01
2017-10-18T09:42:11.775Z,33.11
2017-10-18T09:44:39.314Z,33.10
2017-10-18T09:47:06.957Z,31.83
2017-10-18T09:49:34.461Z,31.66
2017-10-18T09:52:02.031Z,32.37
2017-10-18T09:54:29.646Z,32.25
2017-10-18T09:56:57.200Z,31.81
2017-10-18T09:59:24.735Z,32.37
2017-10-18T10:01:52.333Z,33.35
2017-10-18T10:04:19.876Z,32.95
2017-10-18T10:06:47.494Z,32.14
2017-10-18T10:09:15.100Z,31.10
2017-10-18T10:11:42.628Z,31.50
2017-10-18T10:14:10.163Z,31.48
2017-10-18T10:16:37.697Z,30.91
2017-10-18T10:19:05.236Z,32.09
2017-10-18T10:21:33.751Z,33.86
2017-10-18T10:24:02.043Z,33.76
2017-10-18T10:26:29.536Z,34.00
2017-10-18T10:28:57.084Z,32.96
2017-10-18T10:31:24.601Z,32.72
2017-10-18T10:33:52.144Z,33.43
2017-10-18T10:36:19.714Z,34.19
2017-10-18T10:38:47.298Z,33.91
2017-10-18T10:41:15.213Z,34.38
2017-10-18T10:43:42.714Z,34.02
2017-10-18T10:46:10.270Z,34.13
2017-10-18T10:48:38.459Z,35.26
2017-10-18T10:51:06.001Z,35.69
2017-10-18T10:53:33.614Z,35.64
2017-10-18T10:56:01.256Z,36.33
2017-10-18T10:58:28.839Z,36.55
2017-10-18T11:00:56.373Z,36.47
2017-10-18T11:03:24.966Z,36.96
2017-10-18T11:05:52.503Z,37.35
2017-10-18T11:08:20.043Z,37.81
2017-10-18T11:10:48.273Z,37.04
2017-10-18T11:13:16.778Z,36.74
2017-10-18T11:15:44.291Z,36.46
2017-10-18T11:18:11.829Z,36.28
2017-10-18T11:20:39.474Z,35.32
2017-10-18T11:23:07.022Z,33.97
2017-10-18T11:25:34.579Z,33.95
2017-10-18T11:28:02.798Z,33.15
2017-10-18T11:30:30.379Z,32.88
2017-10-18T11:32:57.902Z,33.34
2017-10-18T11:35:25.441Z,33.33
2017-10-18T11:37:52.987Z,33.74
2017-10-18T11:40:21.164Z,34.89
2017-10-18T11:42:49.264Z,33.78
2017-10-18T11:45:16.818Z,34.47
2017-10-18T11:47:44.313Z,35.34
2017-10-18T11:50:11.856Z,35.06
2017-10-18T11:52:39.334Z,35.89
2017-10-18T11:55:06.865Z,36.30
2017-10-18T11:57:34.464Z,36.92
2017-10-18T12:00:01.964Z,36.74
2017-10-18T12:02:29.537Z,37.07
2017-10-18T12:04:57.098Z,37.73
2017-10-18T12:07:24.650Z,38.54
2017-10-18T12:09:52.897Z,37.29
2017-10-18T12:12:20.465Z,36.75
2017-10-18T12:14:48.423Z,37.80
2017-10-18T12:17:16.880Z,37.85
2017-10-18T12:19:44.518Z,37.24
2017-10-18T12:22:12.137Z,37.67
2017-10-18T12:24:39.743Z,35.85
2017-10-18T12:27:07.362Z,37.46
2017-10-18T12:29:34.941Z,37.73
2017-10-18T12:32:02.720Z,36.80
2017-10-18T12:34:30.275Z,36.87
2017-10-18T12:36:57.837Z,36.93
2017-10-18T12:39:26.174Z,35.93
2017-10-18T12:41:53.725Z,35.38
2017-10-18T12:44:21.338Z,34.75
2017-10-18T12:46:48.932Z,33.85
2017-10-18T12:49:16.446Z,34.11
2017-10-18T12:51:43.968Z,33.65
2017-10-18T12:54:11.499Z,33.46
2017-10-18T12:56:39.053Z,32.67
2017-10-18T12:59:06.644Z,32.64
2017-10-18T13:01:34.209Z,32.09
2017-10-18T13:04:01.733Z,31.69
2017-10-18T13:06:30.126Z,31.91
2017-10-18T13:08:57.620Z,31.84
2017-10-18T13:11:25.220Z,31.76
2017-10-18T13:13:52.778Z,31.63
2017-10-18T13:16:20.333Z,31.88
2017-10-18T13:18:47.818Z,32.07
2017-10-18T13:21:15.349Z,32.04
2017-10-18T13:23:42.864Z,32.76
2017-10-18T13:26:10.380Z,33.59
2017-10-18T13:28:37.926Z,32.90
2017-10-18T13:31:05.477Z,33.06
2017-10-18T13:33:33.014Z,33.19
2017-10-18T13:36:01.133Z,32.42
2017-10-18T13:38:28.652Z,31.89
2017-10-18T13:40:56.190Z,32.36
2017-10-18T13:43:27.266Z,31.56
2017-10-18T13:45:54.901Z,31.64
2017-10-18T13:48:23.343Z,31.44
2017-10-18T13:50:50.936Z,31.35
2017-10-18T13:53:18.510Z,30.56
2017-10-18T13:55:46.630Z,30.77
2017-10-18T13:58:16.116Z,30.64
2017-10-18T14:00:43.642Z,30.19
2017-10-18T14:03:13.090Z,29.73
2017-10-18T14:05:40.966Z,28.90
2017-10-18T14:08:08.572Z,28.99
2017-10-18T14:10:36.186Z,28.77
2017-10-18T14:13:03.741Z,28.59
2017-10-18T14:15:32.305Z,28.57
2017-10-18T14:17:59.847Z,28.21
2017-10-18T14:20:28.007Z,28.18
2017-10-18T14:22:58.627Z,28.16
2017-10-18T14:25:27.594Z,27.74
2017-10-18T14:27:55.274Z,27.25
2017-10-18T14:30:23.244Z,27.34
2017-10-18T14:32:53.075Z,27.12
2017-10-18T14:35:20.851Z,27.09
2017-10-18T14:37:53.612Z,27.28
2017-10-18T14:40:25.415Z,27.01
2017-10-18T14:42:54.092Z,27.04
2017-10-18T14:45:22.622Z,26.67
2017-10-18T14:47:50.350Z,26.73
2017-10-18T14:50:18.029Z,26.37
2017-10-18T14:52:45.607Z,26.36
2017-10-18T14:55:13.312Z,26.39
2017-10-18T14:57:41.820Z,26.30
2017-10-18T15:00:10.552Z,25.86
2017-10-18T15:02:41.131Z,25.53
2017-10-18T15:05:08.675Z,25.61
2017-10-18T15:07:36.478Z,25.68
2017-10-18T15:10:04.249Z,25.60
2017-10-18T15:12:32.042Z,25.57
2017-10-18T15:14:59.579Z,25.31
2017-10-18T15:17:27.274Z,24.98
2017-10-18T15:19:54.924Z,25.04
2017-10-18T15:22:22.480Z,25.07
2017-10-18T15:24:50.023Z,24.83
2017-10-18T15:27:17.549Z,24.71
2017-10-18T15:29:45.007Z,24.61
2017-10-18T15:32:12.604Z,24.63
2017-10-18T15:34:40.188Z,24.57
2017-10-18T15:37:07.724Z,24.59
2017-10-18T15:39:35.334Z,24.60
2017-10-18T15:42:03.149Z,24.31
2017-10-18T15:44:30.813Z,24.26
2017-10-18T15:46:58.360Z,24.06
2017-10-18T15:49:25.902Z,24.12
2017-10-18T15:51:53.429Z,24.12
2017-10-18T15:57:09.310Z,23.82
2017-10-18T15:59:36.825Z,23.76
2017-10-18T16:02:04.489Z,23.59
2017-10-18T16:04:47.719Z,23.33
2017-10-18T16:07:15.265Z,23.11
2017-10-18T16:09:42.895Z,22.91
2017-10-18T16:12:20.696Z,22.93
2017-10-18T16:14:50.052Z,22.84
2017-10-18T16:17:17.845Z,22.39
2017-10-18T16:19:46.055Z,22.40
2017-10-18T16:22:14.191Z,22.37
2017-10-18T16:24:48.524Z,22.35
2017-10-18T16:27:27.455Z,22.31
2017-10-18T16:29:58.557Z,22.31
2017-10-18T16:32:29.241Z,22.18
2017-10-18T16:35:04.005Z,22.17
2017-10-18T16:37:31.508Z,21.65
2017-10-18T16:40:00.146Z,21.35
2017-10-18T16:42:35.458Z,21.27
2017-10-18T16:45:03.676Z,21.35
2017-10-18T16:47:31.311Z,21.31
2017-10-18T16:49:58.804Z,21.22
2017-10-18T16:52:26.432Z,21.20
2017-10-18T16:54:54.029Z,20.99
2017-10-18T16:57:22.482Z,20.82
2017-10-18T16:59:50.049Z,20.60
2017-10-18T17:02:17.731Z,20.61
2017-10-18T17:04:46.293Z,20.62
2017-10-18T17:07:14.184Z,20.29
2017-10-18T17:09:41.911Z,20.16
2017-10-18T17:12:09.727Z,19.90
2017-10-18T17:14:39.088Z,19.87
2017-10-18T17:17:06.754Z,19.63
2017-10-18T17:19:35.425Z,19.59
2017-10-18T17:22:03.277Z,19.38
2017-10-18T17:24:31.352Z,19.25
2017-10-18T17:26:59.364Z,19.53
2017-10-18T17:29:26.921Z,19.47
2017-10-18T17:31:54.851Z,19.38
2017-10-18T17:34:23.323Z,19.48
2017-10-18T17:36:51.492Z,19.49
2017-10-18T17:39:19.287Z,19.37
2017-10-18T17:41:47.171Z,19.24
2017-10-18T17:44:15.187Z,19.22
2017-10-18T17:46:42.809Z,19.15
2017-10-18T17:49:10.882Z,19.12
2017-10-18T17:51:38.506Z,18.95
2017-10-18T17:54:06.167Z,19.05
2017-10-18T17:56:34.444Z,18.85
2017-10-18T17:59:02.009Z,18.86
2017-10-18T18:01:29.677Z,18.66
2017-10-18T18:03:58.047Z,18.52
2017-10-18T18:06:25.563Z,18.54
2017-10-18T18:08:53.348Z,18.37
2017-10-18T18:11:20.970Z,18.43
2017-10-18T18:13:48.629Z,18.32
2017-10-18T18:16:17.196Z,18.32
2017-10-18T18:18:45.821Z,18.16
2017-10-18T18:21:13.532Z,18.13
2017-10-18T18:23:41.313Z,17.89
2017-10-18T18:26:10.008Z,17.81
2017-10-18T18:28:37.566Z,17.93
2017-10-18T18:31:05.278Z,17.86
2017-10-18T18:33:33.149Z,17.93
2017-10-18T18:36:01.567Z,17.82
2017-10-18T18:38:29.373Z,17.60
2017-10-18T18:40:57.025Z,17.36
2017-10-18T18:43:25.589Z,17.16
2017-10-18T18:45:53.123Z,17.16
2017-10-18T18:48:20.784Z,17.34
2017-10-18T18:50:48.432Z,17.22
2017-10-18T18:53:16.076Z,16.99
2017-10-18T18:55:43.638Z,17.00
2017-10-18T18:58:11.170Z,17.13
2017-10-18T19:00:38.699Z,17.14
2017-10-18T19:03:06.381Z,17.07
2017-10-18T19:05:34.018Z,17.01
2017-10-18T19:08:01.563Z,17.06
2017-10-18T19:10:29.137Z,16.91
2017-10-18T19:12:56.749Z,16.79
2017-10-18T19:15:25.354Z,16.68
2017-10-18T19:17:53.130Z,16.67
2017-10-18T19:20:21.510Z,16.82
2017-10-18T19:22:49.365Z,16.80
2017-10-18T19:25:17.887Z,16.68
2017-10-18T19:27:46.538Z,16.69
2017-10-18T19:30:14.289Z,16.82
2017-10-18T19:32:41.955Z,16.70
2017-10-18T19:35:09.590Z,16.57
2017-10-18T19:37:38.126Z,16.56
2017-10-18T19:40:11.022Z,16.47
2017-10-18T19:42:38.769Z,16.52
2017-10-18T19:45:07.432Z,16.41
2017-10-18T19:47:35.810Z,16.13
2017-10-18T19:50:03.833Z,16.03
2017-10-18T19:52:32.051Z,16.02
2017-10-18T19:54:59.631Z,16.05
2017-10-18T19:57:27.416Z,15.97
2017-10-18T19:59:58.254Z,15.65
2017-10-18T20:02:26.094Z,15.58
2017-10-18T20:04:54.677Z,15.43
2017-10-18T20:07:23.622Z,15.36
2017-10-18T20:09:51.346Z,15.59
2017-10-18T20:12:20.811Z,15.66
2017-10-18T20:14:49.127Z,15.77
2017-10-18T20:17:16.794Z,15.75
2017-10-18T20:19:44.515Z,15.70
2017-10-18T20:22:12.666Z,15.54
2017-10-18T20:24:40.833Z,15.64
2017-10-18T20:27:09.384Z,15.63
2017-10-18T20:29:37.623Z,15.56
2017-10-18T20:32:08.396Z,15.48
2017-10-18T20:34:36.022Z,15.63
2017-10-18T20:37:04.743Z,15.48
2017-10-18T20:39:33.534Z,15.28
2017-10-18T20:42:02.134Z,15.13
2017-10-18T20:44:29.866Z,15.20
2017-10-18T20:46:58.548Z,15.21
2017-10-18T20:49:27.766Z,15.20
2017-10-18T20:51:56.940Z,15.03
2017-10-18T20:54:24.538Z,15.06
2017-10-18T20:56:52.933Z,15.01
2017-10-18T20:59:21.868Z,14.87
2017-10-18T21:01:50.404Z,14.78
2017-10-18T21:04:18.108Z,14.74
2017-10-18T21:06:45.798Z,14.79
2017-10-18T21:09:13.634Z,14.86
2017-10-18T21:11:41.321Z,14.75
2017-10-18T21:14:09.313Z,14.65
2017-10-18T21:16:37.792Z,14.69
2017-10-18T21:19:05.513Z,14.55
2017-10-18T21:21:34.049Z,14.40
2017-10-18T21:24:01.717Z,14.56
2017-10-18T21:26:31.306Z,14.62
2017-10-18T21:28:59.846Z,14.40
2017-10-18T21:31:27.981Z,14.38
2017-10-18T21:33:55.694Z,14.26
2017-10-18T21:36:23.391Z,14.51
2017-10-18T21:38:52.532Z,14.50
2017-10-18T21:41:20.167Z,14.57
2017-10-18T21:43:47.770Z,14.35
2017-10-18T21:46:15.532Z,14.14
2017-10-18T21:48:43.192Z,14.19
2017-10-18T21:51:11.433Z,14.10
2017-10-18T21:53:40.925Z,14.19
2017-10-18T21:56:08.662Z,14.07
2017-10-18T21:58:36.982Z,13.99
2017-10-18T22:01:05.497Z,13.95
2017-10-18T22:03:33.172Z,14.06
2017-10-18T22:06:00.947Z,14.05
2017-10-18T22:08:28.561Z,14.05
2017-10-18T22:10:57.296Z,14.06
2017-10-18T22:13:25.037Z,14.00
2017-10-18T22:15:52.683Z,13.92
2017-10-18T22:18:20.399Z,13.90
2017-10-18T22:20:48.017Z,13.90
2017-10-18T22:23:15.799Z,13.81
2017-10-18T22:25:43.452Z,13.82
2017-10-18T22:30:45.582Z,13.82
2017-10-18T22:33:13.926Z,13.32
2017-10-18T22:35:43.584Z,13.45
2017-10-18T22:38:11.257Z,13.47
2017-10-18T22:40:38.853Z,13.48
2017-10-18T22:43:06.837Z,13.54
2017-10-18T22:45:34.528Z,13.38
2017-10-18T22:48:03.947Z,13.29
2017-10-18T22:50:32.203Z,13.20
2017-10-18T22:52:59.882Z,13.08
2017-10-18T22:55:27.543Z,13.21
2017-10-18T22:57:55.179Z,13.07
2017-10-18T23:00:23.866Z,13.13
2017-10-18T23:02:51.542Z,12.99
2017-10-18T23:05:19.271Z,12.95
2017-10-18T23:07:46.987Z,12.93
2017-10-18T23:10:14.626Z,12.97
2017-10-18T23:12:42.284Z,13.08
2017-10-18T23:15:10.632Z,13.08
2017-10-18T23:17:38.354Z,13.13
2017-10-18T23:20:06.038Z,13.09
2017-10-18T23:22:33.805Z,13.14
2017-10-18T23:25:01.551Z,13.13
2017-10-18T23:27:30.298Z,13.14
2017-10-18T23:29:57.859Z,13.09
2017-10-18T23:32:25.429Z,12.93
2017-10-18T23:34:52.989Z,12.88
2017-10-18T23:37:20.627Z,12.78
2017-10-18T23:39:48.183Z,12.83
2017-10-18T23:42:15.800Z,12.83
2017-10-18T23:44:45.656Z,12.61
2017-10-18T23:47:13.221Z,12.45
2017-10-18T23:49:40.899Z,12.65
2017-10-18T23:52:08.531Z,12.61
2017-10-18T23:54:36.268Z,12.71
2017-10-18T23:57:03.860Z,12.51
2017-10-18T23:59:31.671Z,12.54
